sensor_id;sensor_type;location;lat;lon;timestamp;P1;durP1;ratioP1;P2;durP2;ratioP2
3447;SDS011;1738;49.500;17.736;2023-03-24T00:01:51;14.03;;;10.40;;
3447;SDS011;1738;49.500;17.736;2023-03-24T00:04:17;14.53;;;10.17;;
3447;SDS011;1738;49.500;17.736;2023-03-24T00:06:43;18.37;;;13.03;;
3447;SDS011;1738;49.500;17.736;2023-03-24T00:09:09;17.10;;;11.07;;
3447;SDS011;1738;49.500;17.736;2023-03-24T00:11:34;19.67;;;12.07;;
3447;SDS011;1738;49.500;17.736;2023-03-24T00:14:01;25.23;;;13.23;;
3447;SDS011;1738;49.500;17.736;2023-03-24T00:16:26;17.67;;;11.83;;
3447;SDS011;1738;49.500;17.736;2023-03-24T00:18:52;14.80;;;11.67;;
3447;SDS011;1738;49.500;17.736;2023-03-24T00:21:18;17.07;;;11.77;;
3447;SDS011;1738;49.500;17.736;2023-03-24T00:23:44;18.47;;;12.27;;
3447;SDS011;1738;49.500;17.736;2023-03-24T00:26:11;16.00;;;11.37;;
3447;SDS011;1738;49.500;17.736;2023-03-24T00:28:36;20.90;;;12.37;;
3447;SDS011;1738;49.500;17.736;2023-03-24T00:31:02;18.53;;;12.23;;
3447;SDS011;1738;49.500;17.736;2023-03-24T00:33:28;18.40;;;12.07;;
3447;SDS011;1738;49.500;17.736;2023-03-24T00:35:54;20.40;;;12.83;;
3447;SDS011;1738;49.500;17.736;2023-03-24T00:38:20;19.73;;;11.70;;
3447;SDS011;1738;49.500;17.736;2023-03-24T00:40:46;16.83;;;11.40;;
3447;SDS011;1738;49.500;17.736;2023-03-24T00:43:12;23.03;;;13.57;;
3447;SDS011;1738;49.500;17.736;2023-03-24T00:45:38;20.33;;;11.60;;
3447;SDS011;1738;49.500;17.736;2023-03-24T00:48:04;16.83;;;11.93;;
3447;SDS011;1738;49.500;17.736;2023-03-24T00:50:30;15.40;;;12.17;;
3447;SDS011;1738;49.500;17.736;2023-03-24T00:52:56;15.43;;;11.57;;
3447;SDS011;1738;49.500;17.736;2023-03-24T00:55:21;21.77;;;12.33;;
3447;SDS011;1738;49.500;17.736;2023-03-24T00:57:47;18.33;;;12.70;;
3447;SDS011;1738;49.500;17.736;2023-03-24T01:00:15;23.20;;;13.20;;
3447;SDS011;1738;49.500;17.736;2023-03-24T01:02:40;20.17;;;13.40;;
3447;SDS011;1738;49.500;17.736;2023-03-24T01:05:06;22.30;;;13.07;;
3447;SDS011;1738;49.500;17.736;2023-03-24T01:07:32;19.43;;;12.37;;
3447;SDS011;1738;49.500;17.736;2023-03-24T01:09:58;23.07;;;12.83;;
3447;SDS011;1738;49.500;17.736;2023-03-24T01:12:24;15.73;;;11.30;;
3447;SDS011;1738;49.500;17.736;2023-03-24T01:14:49;14.60;;;11.57;;
3447;SDS011;1738;49.500;17.736;2023-03-24T01:17:15;18.47;;;12.13;;
3447;SDS011;1738;49.500;17.736;2023-03-24T01:19:41;13.43;;;11.93;;
3447;SDS011;1738;49.500;17.736;2023-03-24T01:22:07;17.33;;;12.17;;
3447;SDS011;1738;49.500;17.736;2023-03-24T01:24:33;16.97;;;12.47;;
3447;SDS011;1738;49.500;17.736;2023-03-24T01:26:59;19.80;;;13.13;;
3447;SDS011;1738;49.500;17.736;2023-03-24T01:29:25;16.20;;;11.57;;
3447;SDS011;1738;49.500;17.736;2023-03-24T01:31:50;17.07;;;11.83;;
3447;SDS011;1738;49.500;17.736;2023-03-24T01:34:16;19.90;;;13.40;;
3447;SDS011;1738;49.500;17.736;2023-03-24T01:36:42;15.23;;;11.93;;
3447;SDS011;1738;49.500;17.736;2023-03-24T01:39:08;22.20;;;12.10;;
3447;SDS011;1738;49.500;17.736;2023-03-24T01:41:35;17.07;;;13.13;;
3447;SDS011;1738;49.500;17.736;2023-03-24T01:44:00;19.20;;;14.00;;
3447;SDS011;1738;49.500;17.736;2023-03-24T01:46:26;18.23;;;12.67;;
3447;SDS011;1738;49.500;17.736;2023-03-24T01:48:53;23.20;;;12.90;;
3447;SDS011;1738;49.500;17.736;2023-03-24T01:51:23;23.60;;;14.07;;
3447;SDS011;1738;49.500;17.736;2023-03-24T01:53:55;19.57;;;13.80;;
3447;SDS011;1738;49.500;17.736;2023-03-24T01:56:22;16.47;;;13.10;;
3447;SDS011;1738;49.500;17.736;2023-03-24T01:58:50;17.60;;;13.33;;
3447;SDS011;1738;49.500;17.736;2023-03-24T02:01:14;23.23;;;13.40;;
3447;SDS011;1738;49.500;17.736;2023-03-24T02:03:40;19.70;;;14.03;;
3447;SDS011;1738;49.500;17.736;2023-03-24T02:06:06;20.23;;;12.60;;
3447;SDS011;1738;49.500;17.736;2023-03-24T02:08:33;20.50;;;12.97;;
3447;SDS011;1738;49.500;17.736;2023-03-24T02:10:58;22.20;;;14.20;;
3447;SDS011;1738;49.500;17.736;2023-03-24T02:13:23;17.93;;;13.37;;
3447;SDS011;1738;49.500;17.736;2023-03-24T02:16:26;21.70;;;13.90;;
3447;SDS011;1738;49.500;17.736;2023-03-24T02:18:35;19.40;;;13.90;;
3447;SDS011;1738;49.500;17.736;2023-03-24T02:21:07;18.67;;;13.90;;
3447;SDS011;1738;49.500;17.736;2023-03-24T02:31:31;22.33;;;14.17;;
3447;SDS011;1738;49.500;17.736;2023-03-24T02:41:31;18.83;;;14.20;;
3447;SDS011;1738;49.500;17.736;2023-03-24T02:44:05;24.30;;;16.60;;
3447;SDS011;1738;49.500;17.736;2023-03-24T02:46:35;29.63;;;16.33;;
3447;SDS011;1738;49.500;17.736;2023-03-24T02:49:08;27.15;;;17.70;;
3447;SDS011;1738;49.500;17.736;2023-03-24T02:51:36;35.00;;;20.53;;
3447;SDS011;1738;49.500;17.736;2023-03-24T02:54:09;35.90;;;22.03;;
3447;SDS011;1738;49.500;17.736;2023-03-24T02:56:37;28.73;;;20.27;;
3447;SDS011;1738;49.500;17.736;2023-03-24T02:59:03;28.57;;;20.50;;
3447;SDS011;1738;49.500;17.736;2023-03-24T03:01:29;35.00;;;23.43;;
3447;SDS011;1738;49.500;17.736;2023-03-24T03:03:57;29.20;;;22.00;;
3447;SDS011;1738;49.500;17.736;2023-03-24T03:06:25;31.70;;;23.17;;
3447;SDS011;1738;49.500;17.736;2023-03-24T03:08:49;29.40;;;21.23;;
3447;SDS011;1738;49.500;17.736;2023-03-24T03:11:15;36.13;;;23.03;;
3447;SDS011;1738;49.500;17.736;2023-03-24T03:13:42;29.90;;;19.87;;
3447;SDS011;1738;49.500;17.736;2023-03-24T03:16:08;34.10;;;21.90;;
3447;SDS011;1738;49.500;17.736;2023-03-24T03:18:41;32.33;;;22.33;;
3447;SDS011;1738;49.500;17.736;2023-03-24T03:21:10;28.63;;;20.60;;
3447;SDS011;1738;49.500;17.736;2023-03-24T03:23:36;27.10;;;21.00;;
3447;SDS011;1738;49.500;17.736;2023-03-24T03:26:01;25.77;;;19.40;;
3447;SDS011;1738;49.500;17.736;2023-03-24T03:28:27;34.80;;;22.30;;
3447;SDS011;1738;49.500;17.736;2023-03-24T03:30:53;28.53;;;22.00;;
3447;SDS011;1738;49.500;17.736;2023-03-24T03:33:20;27.90;;;20.90;;
3447;SDS011;1738;49.500;17.736;2023-03-24T03:35:46;26.40;;;19.90;;
3447;SDS011;1738;49.500;17.736;2023-03-24T03:38:14;27.83;;;21.23;;
3447;SDS011;1738;49.500;17.736;2023-03-24T03:40:42;29.33;;;20.13;;
3447;SDS011;1738;49.500;17.736;2023-03-24T03:43:06;30.80;;;22.40;;
3447;SDS011;1738;49.500;17.736;2023-03-24T03:45:33;42.00;;;20.33;;
3447;SDS011;1738;49.500;17.736;2023-03-24T03:47:58;33.47;;;21.37;;
3447;SDS011;1738;49.500;17.736;2023-03-24T03:50:24;32.67;;;23.00;;
3447;SDS011;1738;49.500;17.736;2023-03-24T03:52:50;34.17;;;21.93;;
3447;SDS011;1738;49.500;17.736;2023-03-24T03:55:16;32.53;;;22.27;;
3447;SDS011;1738;49.500;17.736;2023-03-24T03:57:42;29.07;;;19.90;;
3447;SDS011;1738;49.500;17.736;2023-03-24T04:00:12;30.90;;;20.70;;
3447;SDS011;1738;49.500;17.736;2023-03-24T04:05:09;32.13;;;21.27;;
3447;SDS011;1738;49.500;17.736;2023-03-24T04:07:36;30.73;;;21.77;;
3447;SDS011;1738;49.500;17.736;2023-03-24T04:10:09;35.93;;;21.50;;
3447;SDS011;1738;49.500;17.736;2023-03-24T04:13:05;26.97;;;20.00;;
3447;SDS011;1738;49.500;17.736;2023-03-24T04:15:15;27.13;;;20.10;;
3447;SDS011;1738;49.500;17.736;2023-03-24T04:20:21;26.70;;;19.07;;
3447;SDS011;1738;49.500;17.736;2023-03-24T04:22:59;30.87;;;20.50;;
3447;SDS011;1738;49.500;17.736;2023-03-24T04:27:57;28.03;;;20.33;;
3447;SDS011;1738;49.500;17.736;2023-03-24T04:30:24;29.77;;;20.77;;
3447;SDS011;1738;49.500;17.736;2023-03-24T04:32:48;27.00;;;19.27;;
3447;SDS011;1738;49.500;17.736;2023-03-24T04:35:18;27.57;;;19.30;;
3447;SDS011;1738;49.500;17.736;2023-03-24T04:37:42;28.20;;;19.40;;
3447;SDS011;1738;49.500;17.736;2023-03-24T04:40:09;32.10;;;20.17;;
3447;SDS011;1738;49.500;17.736;2023-03-24T04:42:38;26.90;;;19.83;;
3447;SDS011;1738;49.500;17.736;2023-03-24T04:45:03;26.20;;;17.20;;
3447;SDS011;1738;49.500;17.736;2023-03-24T04:47:28;24.63;;;17.93;;
3447;SDS011;1738;49.500;17.736;2023-03-24T04:50:04;25.33;;;17.87;;
3447;SDS011;1738;49.500;17.736;2023-03-24T04:52:30;25.80;;;18.17;;
3447;SDS011;1738;49.500;17.736;2023-03-24T04:54:56;25.60;;;19.10;;
3447;SDS011;1738;49.500;17.736;2023-03-24T04:57:22;20.10;;;15.87;;
3447;SDS011;1738;49.500;17.736;2023-03-24T04:59:47;21.53;;;16.97;;
3447;SDS011;1738;49.500;17.736;2023-03-24T05:02:13;24.67;;;18.03;;
3447;SDS011;1738;49.500;17.736;2023-03-24T05:04:39;25.13;;;18.13;;
3447;SDS011;1738;49.500;17.736;2023-03-24T05:07:05;31.23;;;19.97;;
3447;SDS011;1738;49.500;17.736;2023-03-24T05:09:31;25.67;;;20.20;;
3447;SDS011;1738;49.500;17.736;2023-03-24T05:11:57;25.97;;;20.50;;
3447;SDS011;1738;49.500;17.736;2023-03-24T05:14:23;27.10;;;21.67;;
3447;SDS011;1738;49.500;17.736;2023-03-24T05:16:48;26.97;;;20.67;;
3447;SDS011;1738;49.500;17.736;2023-03-24T05:19:14;28.27;;;20.67;;
3447;SDS011;1738;49.500;17.736;2023-03-24T05:21:40;24.10;;;18.67;;
3447;SDS011;1738;49.500;17.736;2023-03-24T05:24:06;27.23;;;20.50;;
3447;SDS011;1738;49.500;17.736;2023-03-24T05:26:32;24.63;;;17.97;;
3447;SDS011;1738;49.500;17.736;2023-03-24T05:28:58;24.03;;;17.30;;
3447;SDS011;1738;49.500;17.736;2023-03-24T05:31:23;28.07;;;18.77;;
3447;SDS011;1738;49.500;17.736;2023-03-24T05:33:49;24.23;;;18.77;;
3447;SDS011;1738;49.500;17.736;2023-03-24T05:36:15;26.90;;;20.50;;
3447;SDS011;1738;49.500;17.736;2023-03-24T05:38:41;22.10;;;17.40;;
3447;SDS011;1738;49.500;17.736;2023-03-24T05:41:07;26.83;;;17.55;;
3447;SDS011;1738;49.500;17.736;2023-03-24T05:43:33;23.90;;;17.70;;
3447;SDS011;1738;49.500;17.736;2023-03-24T05:45:59;21.97;;;17.40;;
3447;SDS011;1738;49.500;17.736;2023-03-24T05:48:25;25.90;;;17.90;;
3447;SDS011;1738;49.500;17.736;2023-03-24T05:50:51;19.37;;;16.00;;
3447;SDS011;1738;49.500;17.736;2023-03-24T05:53:16;23.07;;;16.87;;
3447;SDS011;1738;49.500;17.736;2023-03-24T05:55:43;23.57;;;16.10;;
3447;SDS011;1738;49.500;17.736;2023-03-24T05:58:08;24.07;;;15.50;;
3447;SDS011;1738;49.500;17.736;2023-03-24T06:00:34;17.93;;;14.10;;
3447;SDS011;1738;49.500;17.736;2023-03-24T06:03:00;16.27;;;11.40;;
3447;SDS011;1738;49.500;17.736;2023-03-24T06:05:26;17.40;;;13.60;;
3447;SDS011;1738;49.500;17.736;2023-03-24T06:07:52;15.10;;;12.10;;
3447;SDS011;1738;49.500;17.736;2023-03-24T06:10:20;17.93;;;12.90;;
3447;SDS011;1738;49.500;17.736;2023-03-24T06:12:46;19.80;;;13.73;;
3447;SDS011;1738;49.500;17.736;2023-03-24T06:15:12;17.17;;;14.00;;
3447;SDS011;1738;49.500;17.736;2023-03-24T06:17:38;18.87;;;12.60;;
3447;SDS011;1738;49.500;17.736;2023-03-24T06:20:04;16.40;;;12.80;;
3447;SDS011;1738;49.500;17.736;2023-03-24T06:22:30;17.70;;;12.53;;
3447;SDS011;1738;49.500;17.736;2023-03-24T06:24:55;17.73;;;12.50;;
3447;SDS011;1738;49.500;17.736;2023-03-24T06:27:21;19.23;;;11.67;;
3447;SDS011;1738;49.500;17.736;2023-03-24T06:29:47;17.30;;;12.70;;
3447;SDS011;1738;49.500;17.736;2023-03-24T06:32:13;20.00;;;12.03;;
3447;SDS011;1738;49.500;17.736;2023-03-24T06:34:39;15.77;;;12.60;;
3447;SDS011;1738;49.500;17.736;2023-03-24T06:37:05;17.63;;;12.53;;
3447;SDS011;1738;49.500;17.736;2023-03-24T06:39:31;13.47;;;11.20;;
3447;SDS011;1738;49.500;17.736;2023-03-24T06:41:56;17.07;;;12.13;;
3447;SDS011;1738;49.500;17.736;2023-03-24T06:44:22;14.03;;;11.77;;
3447;SDS011;1738;49.500;17.736;2023-03-24T06:46:48;14.07;;;12.00;;
3447;SDS011;1738;49.500;17.736;2023-03-24T06:49:14;42.70;;;21.80;;
3447;SDS011;1738;49.500;17.736;2023-03-24T06:51:40;37.30;;;21.43;;
3447;SDS011;1738;49.500;17.736;2023-03-24T06:54:06;22.20;;;14.20;;
3447;SDS011;1738;49.500;17.736;2023-03-24T06:56:32;15.63;;;13.70;;
3447;SDS011;1738;49.500;17.736;2023-03-24T06:58:58;25.43;;;16.53;;
3447;SDS011;1738;49.500;17.736;2023-03-24T07:01:23;23.80;;;14.90;;
3447;SDS011;1738;49.500;17.736;2023-03-24T07:03:49;15.60;;;12.17;;
3447;SDS011;1738;49.500;17.736;2023-03-24T07:06:15;14.00;;;10.00;;
3447;SDS011;1738;49.500;17.736;2023-03-24T07:08:41;15.33;;;12.30;;
3447;SDS011;1738;49.500;17.736;2023-03-24T07:11:07;19.53;;;9.80;;
3447;SDS011;1738;49.500;17.736;2023-03-24T07:13:33;20.80;;;16.37;;
3447;SDS011;1738;49.500;17.736;2023-03-24T07:15:59;20.53;;;15.93;;
3447;SDS011;1738;49.500;17.736;2023-03-24T07:18:25;77.90;;;54.17;;
3447;SDS011;1738;49.500;17.736;2023-03-24T07:20:50;44.43;;;28.73;;
3447;SDS011;1738;49.500;17.736;2023-03-24T07:23:16;16.33;;;13.60;;
3447;SDS011;1738;49.500;17.736;2023-03-24T07:25:42;23.07;;;16.03;;
3447;SDS011;1738;49.500;17.736;2023-03-24T07:28:08;15.20;;;11.87;;
3447;SDS011;1738;49.500;17.736;2023-03-24T07:30:34;12.50;;;10.70;;
3447;SDS011;1738;49.500;17.736;2023-03-24T07:33:01;12.47;;;9.93;;
3447;SDS011;1738;49.500;17.736;2023-03-24T07:35:26;15.53;;;10.20;;
3447;SDS011;1738;49.500;17.736;2023-03-24T07:37:56;11.20;;;9.80;;
3447;SDS011;1738;49.500;17.736;2023-03-24T07:40:18;12.27;;;10.13;;
3447;SDS011;1738;49.500;17.736;2023-03-24T07:42:44;17.43;;;10.70;;
3447;SDS011;1738;49.500;17.736;2023-03-24T07:45:10;12.97;;;10.83;;
3447;SDS011;1738;49.500;17.736;2023-03-24T07:47:36;15.90;;;12.03;;
3447;SDS011;1738;49.500;17.736;2023-03-24T07:50:02;12.80;;;10.10;;
3447;SDS011;1738;49.500;17.736;2023-03-24T07:52:28;14.67;;;11.67;;
3447;SDS011;1738;49.500;17.736;2023-03-24T07:54:53;15.87;;;10.20;;
3447;SDS011;1738;49.500;17.736;2023-03-24T07:57:19;14.23;;;10.60;;
3447;SDS011;1738;49.500;17.736;2023-03-24T07:59:45;12.50;;;10.13;;
3447;SDS011;1738;49.500;17.736;2023-03-24T08:02:15;13.20;;;9.80;;
3447;SDS011;1738;49.500;17.736;2023-03-24T08:04:37;13.33;;;10.23;;
3447;SDS011;1738;49.500;17.736;2023-03-24T08:07:03;13.03;;;11.10;;
3447;SDS011;1738;49.500;17.736;2023-03-24T08:09:29;13.10;;;10.60;;
3447;SDS011;1738;49.500;17.736;2023-03-24T08:11:54;17.50;;;11.50;;
3447;SDS011;1738;49.500;17.736;2023-03-24T08:14:20;15.87;;;11.83;;
3447;SDS011;1738;49.500;17.736;2023-03-24T08:16:46;15.30;;;10.60;;
3447;SDS011;1738;49.500;17.736;2023-03-24T08:19:12;12.93;;;10.40;;
3447;SDS011;1738;49.500;17.736;2023-03-24T08:21:38;12.87;;;10.30;;
3447;SDS011;1738;49.500;17.736;2023-03-24T08:24:04;13.10;;;9.57;;
3447;SDS011;1738;49.500;17.736;2023-03-24T08:26:30;14.80;;;9.40;;
3447;SDS011;1738;49.500;17.736;2023-03-24T08:28:56;11.30;;;8.40;;
3447;SDS011;1738;49.500;17.736;2023-03-24T08:31:22;15.63;;;9.17;;
3447;SDS011;1738;49.500;17.736;2023-03-24T08:33:47;10.33;;;8.83;;
3447;SDS011;1738;49.500;17.736;2023-03-24T08:36:13;9.50;;;7.77;;
3447;SDS011;1738;49.500;17.736;2023-03-24T08:38:39;9.93;;;6.97;;
3447;SDS011;1738;49.500;17.736;2023-03-24T08:41:05;10.83;;;8.03;;
3447;SDS011;1738;49.500;17.736;2023-03-24T08:43:32;9.47;;;7.63;;
3447;SDS011;1738;49.500;17.736;2023-03-24T08:45:57;8.40;;;6.30;;
3447;SDS011;1738;49.500;17.736;2023-03-24T08:48:23;10.73;;;7.00;;
3447;SDS011;1738;49.500;17.736;2023-03-24T08:50:49;9.90;;;7.00;;
3447;SDS011;1738;49.500;17.736;2023-03-24T08:53:14;7.80;;;6.00;;
3447;SDS011;1738;49.500;17.736;2023-03-24T08:55:40;12.80;;;7.83;;
3447;SDS011;1738;49.500;17.736;2023-03-24T08:58:06;10.07;;;7.50;;
3447;SDS011;1738;49.500;17.736;2023-03-24T09:00:32;9.77;;;6.83;;
3447;SDS011;1738;49.500;17.736;2023-03-24T09:02:58;9.57;;;6.80;;
3447;SDS011;1738;49.500;17.736;2023-03-24T09:05:24;9.87;;;7.57;;
3447;SDS011;1738;49.500;17.736;2023-03-24T09:07:50;9.90;;;7.33;;
3447;SDS011;1738;49.500;17.736;2023-03-24T09:10:16;8.77;;;7.20;;
3447;SDS011;1738;49.500;17.736;2023-03-24T09:12:42;10.20;;;8.37;;
3447;SDS011;1738;49.500;17.736;2023-03-24T09:15:08;9.20;;;6.97;;
3447;SDS011;1738;49.500;17.736;2023-03-24T09:17:33;8.70;;;7.47;;
3447;SDS011;1738;49.500;17.736;2023-03-24T09:19:59;9.73;;;8.50;;
3447;SDS011;1738;49.500;17.736;2023-03-24T09:22:25;9.87;;;7.77;;
3447;SDS011;1738;49.500;17.736;2023-03-24T09:24:51;11.80;;;8.07;;
3447;SDS011;1738;49.500;17.736;2023-03-24T09:27:16;10.77;;;8.60;;
3447;SDS011;1738;49.500;17.736;2023-03-24T09:29:42;9.60;;;8.60;;
3447;SDS011;1738;49.500;17.736;2023-03-24T09:32:08;9.93;;;7.67;;
3447;SDS011;1738;49.500;17.736;2023-03-24T09:34:34;11.10;;;7.60;;
3447;SDS011;1738;49.500;17.736;2023-03-24T09:37:00;10.23;;;6.67;;
3447;SDS011;1738;49.500;17.736;2023-03-24T09:39:26;9.20;;;6.70;;
3447;SDS011;1738;49.500;17.736;2023-03-24T09:41:52;6.57;;;5.60;;
3447;SDS011;1738;49.500;17.736;2023-03-24T09:44:21;8.57;;;6.60;;
3447;SDS011;1738;49.500;17.736;2023-03-24T09:46:46;7.70;;;5.83;;
3447;SDS011;1738;49.500;17.736;2023-03-24T09:49:12;8.40;;;5.87;;
3447;SDS011;1738;49.500;17.736;2023-03-24T09:51:38;9.70;;;6.00;;
3447;SDS011;1738;49.500;17.736;2023-03-24T09:54:12;7.20;;;5.13;;
3447;SDS011;1738;49.500;17.736;2023-03-24T09:56:37;7.07;;;5.20;;
3447;SDS011;1738;49.500;17.736;2023-03-24T09:59:05;10.00;;;5.33;;
3447;SDS011;1738;49.500;17.736;2023-03-24T10:01:30;9.20;;;4.83;;
3447;SDS011;1738;49.500;17.736;2023-03-24T10:03:56;6.83;;;5.00;;
3447;SDS011;1738;49.500;17.736;2023-03-24T10:06:22;6.60;;;4.43;;
3447;SDS011;1738;49.500;17.736;2023-03-24T10:08:50;6.78;;;4.90;;
3447;SDS011;1738;49.500;17.736;2023-03-24T10:13:54;9.63;;;4.73;;
3447;SDS011;1738;49.500;17.736;2023-03-24T10:16:29;6.20;;;4.40;;
3447;SDS011;1738;49.500;17.736;2023-03-24T10:18:57;8.73;;;5.20;;
3447;SDS011;1738;49.500;17.736;2023-03-24T10:21:24;9.53;;;5.17;;
3447;SDS011;1738;49.500;17.736;2023-03-24T10:23:57;6.63;;;4.97;;
3447;SDS011;1738;49.500;17.736;2023-03-24T10:26:25;6.67;;;5.20;;
3447;SDS011;1738;49.500;17.736;2023-03-24T10:28:50;6.80;;;4.47;;
3447;SDS011;1738;49.500;17.736;2023-03-24T10:31:15;6.63;;;4.97;;
3447;SDS011;1738;49.500;17.736;2023-03-24T10:33:41;8.70;;;5.23;;
3447;SDS011;1738;49.500;17.736;2023-03-24T10:36:08;9.93;;;5.00;;
3447;SDS011;1738;49.500;17.736;2023-03-24T10:38:33;8.00;;;5.30;;
3447;SDS011;1738;49.500;17.736;2023-03-24T10:40:59;7.20;;;5.30;;
3447;SDS011;1738;49.500;17.736;2023-03-24T10:43:25;9.00;;;5.07;;
3447;SDS011;1738;49.500;17.736;2023-03-24T10:45:51;7.00;;;5.23;;
3447;SDS011;1738;49.500;17.736;2023-03-24T10:50:48;7.17;;;5.57;;
3447;SDS011;1738;49.500;17.736;2023-03-24T10:53:15;7.83;;;5.47;;
3447;SDS011;1738;49.500;17.736;2023-03-24T10:55:40;8.30;;;5.40;;
3447;SDS011;1738;49.500;17.736;2023-03-24T10:58:11;9.13;;;5.87;;
3447;SDS011;1738;49.500;17.736;2023-03-24T11:00:32;8.57;;;5.70;;
3447;SDS011;1738;49.500;17.736;2023-03-24T11:02:58;10.20;;;7.07;;
3447;SDS011;1738;49.500;17.736;2023-03-24T11:05:25;8.03;;;6.13;;
3447;SDS011;1738;49.500;17.736;2023-03-24T11:07:50;6.77;;;5.70;;
3447;SDS011;1738;49.500;17.736;2023-03-24T11:10:17;8.03;;;6.10;;
3447;SDS011;1738;49.500;17.736;2023-03-24T11:12:42;10.73;;;6.87;;
3447;SDS011;1738;49.500;17.736;2023-03-24T11:15:14;9.20;;;6.57;;
3447;SDS011;1738;49.500;17.736;2023-03-24T11:17:39;7.17;;;5.63;;
3447;SDS011;1738;49.500;17.736;2023-03-24T11:20:13;7.47;;;5.60;;
3447;SDS011;1738;49.500;17.736;2023-03-24T11:22:31;10.70;;;5.50;;
3447;SDS011;1738;49.500;17.736;2023-03-24T11:24:57;8.30;;;6.17;;
3447;SDS011;1738;49.500;17.736;2023-03-24T11:27:23;7.63;;;5.33;;
3447;SDS011;1738;49.500;17.736;2023-03-24T11:29:50;9.87;;;6.17;;
3447;SDS011;1738;49.500;17.736;2023-03-24T11:32:17;9.80;;;5.50;;
3447;SDS011;1738;49.500;17.736;2023-03-24T11:34:44;10.37;;;5.60;;
3447;SDS011;1738;49.500;17.736;2023-03-24T11:37:12;9.90;;;6.40;;
3447;SDS011;1738;49.500;17.736;2023-03-24T11:39:37;6.03;;;5.00;;
3447;SDS011;1738;49.500;17.736;2023-03-24T11:42:10;7.10;;;5.30;;
3447;SDS011;1738;49.500;17.736;2023-03-24T11:44:32;8.33;;;6.27;;
3447;SDS011;1738;49.500;17.736;2023-03-24T11:46:58;8.80;;;5.67;;
3447;SDS011;1738;49.500;17.736;2023-03-24T11:49:27;8.30;;;6.27;;
3447;SDS011;1738;49.500;17.736;2023-03-24T11:51:52;6.87;;;5.40;;
3447;SDS011;1738;49.500;17.736;2023-03-24T11:54:18;7.97;;;5.67;;
3447;SDS011;1738;49.500;17.736;2023-03-24T11:56:45;7.43;;;5.20;;
3447;SDS011;1738;49.500;17.736;2023-03-24T12:01:44;7.93;;;5.03;;
3447;SDS011;1738;49.500;17.736;2023-03-24T12:09:26;9.90;;;5.93;;
3447;SDS011;1738;49.500;17.736;2023-03-24T12:12:04;10.00;;;5.53;;
3447;SDS011;1738;49.500;17.736;2023-03-24T12:14:34;6.03;;;5.07;;
3447;SDS011;1738;49.500;17.736;2023-03-24T12:16:59;8.80;;;4.90;;
3447;SDS011;1738;49.500;17.736;2023-03-24T12:19:42;6.80;;;5.63;;
3447;SDS011;1738;49.500;17.736;2023-03-24T12:22:13;6.83;;;5.93;;
3447;SDS011;1738;49.500;17.736;2023-03-24T12:24:45;10.53;;;5.70;;
3447;SDS011;1738;49.500;17.736;2023-03-24T12:27:06;7.13;;;5.57;;
3447;SDS011;1738;49.500;17.736;2023-03-24T12:29:44;14.80;;;6.07;;
3447;SDS011;1738;49.500;17.736;2023-03-24T12:34:57;5.23;;;4.40;;
3447;SDS011;1738;49.500;17.736;2023-03-24T12:37:29;10.10;;;5.20;;
3447;SDS011;1738;49.500;17.736;2023-03-24T12:40:01;8.37;;;5.10;;
3447;SDS011;1738;49.500;17.736;2023-03-24T12:42:22;7.00;;;4.83;;
3447;SDS011;1738;49.500;17.736;2023-03-24T12:44:54;6.77;;;5.50;;
3447;SDS011;1738;49.500;17.736;2023-03-24T12:47:24;9.73;;;4.80;;
3447;SDS011;1738;49.500;17.736;2023-03-24T12:49:52;8.37;;;6.20;;
3447;SDS011;1738;49.500;17.736;2023-03-24T12:54:50;10.30;;;6.20;;
3447;SDS011;1738;49.500;17.736;2023-03-24T12:57:16;8.50;;;5.10;;
3447;SDS011;1738;49.500;17.736;2023-03-24T12:59:44;7.23;;;5.57;;
3447;SDS011;1738;49.500;17.736;2023-03-24T13:02:13;13.00;;;5.20;;
3447;SDS011;1738;49.500;17.736;2023-03-24T13:04:37;10.83;;;5.53;;
3447;SDS011;1738;49.500;17.736;2023-03-24T13:07:07;10.60;;;6.13;;
3447;SDS011;1738;49.500;17.736;2023-03-24T13:12:09;10.00;;;5.97;;
3447;SDS011;1738;49.500;17.736;2023-03-24T13:14:41;8.10;;;5.20;;
3447;SDS011;1738;49.500;17.736;2023-03-24T13:17:03;7.07;;;5.40;;
3447;SDS011;1738;49.500;17.736;2023-03-24T13:19:27;50.93;;;7.00;;
3447;SDS011;1738;49.500;17.736;2023-03-24T13:21:53;7.93;;;5.80;;
3447;SDS011;1738;49.500;17.736;2023-03-24T13:24:18;9.47;;;5.50;;
3447;SDS011;1738;49.500;17.736;2023-03-24T13:26:52;8.07;;;6.27;;
3447;SDS011;1738;49.500;17.736;2023-03-24T13:30:24;7.33;;;5.83;;
3447;SDS011;1738;49.500;17.736;2023-03-24T13:31:59;9.33;;;6.20;;
3447;SDS011;1738;49.500;17.736;2023-03-24T13:34:29;10.00;;;5.73;;
3447;SDS011;1738;49.500;17.736;2023-03-24T13:36:54;8.40;;;5.83;;
3447;SDS011;1738;49.500;17.736;2023-03-24T13:39:19;8.90;;;6.07;;
3447;SDS011;1738;49.500;17.736;2023-03-24T13:41:46;9.23;;;5.90;;
3447;SDS011;1738;49.500;17.736;2023-03-24T13:44:17;8.23;;;5.67;;
3447;SDS011;1738;49.500;17.736;2023-03-24T13:46:40;8.60;;;6.40;;
3447;SDS011;1738;49.500;17.736;2023-03-24T13:49:07;9.20;;;6.20;;
3447;SDS011;1738;49.500;17.736;2023-03-24T13:51:33;8.20;;;5.83;;
3447;SDS011;1738;49.500;17.736;2023-03-24T13:54:02;11.20;;;6.57;;
3447;SDS011;1738;49.500;17.736;2023-03-24T13:56:31;10.27;;;7.00;;
3447;SDS011;1738;49.500;17.736;2023-03-24T13:59:05;16.23;;;7.70;;
3447;SDS011;1738;49.500;17.736;2023-03-24T14:01:33;9.67;;;6.63;;
3447;SDS011;1738;49.500;17.736;2023-03-24T14:09:03;11.10;;;7.53;;
3447;SDS011;1738;49.500;17.736;2023-03-24T14:17:11;12.43;;;7.50;;
3447;SDS011;1738;49.500;17.736;2023-03-24T14:19:37;11.37;;;7.70;;
3447;SDS011;1738;49.500;17.736;2023-03-24T14:22:10;10.80;;;7.77;;
3447;SDS011;1738;49.500;17.736;2023-03-24T14:24:34;10.20;;;7.67;;
3447;SDS011;1738;49.500;17.736;2023-03-24T14:27:00;10.57;;;7.70;;
3447;SDS011;1738;49.500;17.736;2023-03-24T14:29:36;12.97;;;7.57;;
3447;SDS011;1738;49.500;17.736;2023-03-24T14:32:02;9.37;;;7.60;;
3447;SDS011;1738;49.500;17.736;2023-03-24T14:34:28;10.67;;;7.70;;
3447;SDS011;1738;49.500;17.736;2023-03-24T14:36:57;10.10;;;8.03;;
3447;SDS011;1738;49.500;17.736;2023-03-24T14:39:32;12.40;;;8.17;;
3447;SDS011;1738;49.500;17.736;2023-03-24T14:41:52;12.33;;;8.33;;
3447;SDS011;1738;49.500;17.736;2023-03-24T14:46:50;12.13;;;9.00;;
3447;SDS011;1738;49.500;17.736;2023-03-24T14:49:22;12.63;;;8.70;;
3447;SDS011;1738;49.500;17.736;2023-03-24T14:51:51;12.77;;;9.57;;
3447;SDS011;1738;49.500;17.736;2023-03-24T14:54:16;11.17;;;9.03;;
3447;SDS011;1738;49.500;17.736;2023-03-24T14:56:41;11.60;;;8.60;;
3447;SDS011;1738;49.500;17.736;2023-03-24T14:59:09;14.13;;;9.33;;
3447;SDS011;1738;49.500;17.736;2023-03-24T15:01:35;12.47;;;8.67;;
3447;SDS011;1738;49.500;17.736;2023-03-24T15:04:01;16.90;;;10.15;;
3447;SDS011;1738;49.500;17.736;2023-03-24T15:06:27;14.57;;;10.63;;
3447;SDS011;1738;49.500;17.736;2023-03-24T15:08:54;14.07;;;11.17;;
3447;SDS011;1738;49.500;17.736;2023-03-24T15:11:24;12.60;;;10.50;;
3447;SDS011;1738;49.500;17.736;2023-03-24T15:13:49;16.17;;;10.80;;
3447;SDS011;1738;49.500;17.736;2023-03-24T15:16:16;18.03;;;13.13;;
3447;SDS011;1738;49.500;17.736;2023-03-24T15:18:44;24.13;;;14.00;;
3447;SDS011;1738;49.500;17.736;2023-03-24T15:21:14;21.30;;;15.77;;
3447;SDS011;1738;49.500;17.736;2023-03-24T15:26:32;17.00;;;10.80;;
3447;SDS011;1738;49.500;17.736;2023-03-24T15:28:59;15.90;;;12.03;;
3447;SDS011;1738;49.500;17.736;2023-03-24T15:31:24;15.80;;;12.80;;
3447;SDS011;1738;49.500;17.736;2023-03-24T15:33:50;15.63;;;11.33;;
3447;SDS011;1738;49.500;17.736;2023-03-24T15:36:20;12.33;;;10.27;;
3447;SDS011;1738;49.500;17.736;2023-03-24T15:38:44;14.70;;;10.87;;
3447;SDS011;1738;49.500;17.736;2023-03-24T15:41:10;14.43;;;11.07;;